Detall de PIREP

Printer-friendly versionPDF version

[2014/10/02 12:08:00]
Flight IATA:CT1029
Pilot Number:012
Company ICAO:CAT
Aircraft Type:B763/F
PAX:0
Departing Airport: CYUL
Destination Airport: BIKF
Alternate Airport:BIAR
Online: VATSIM
Route:YQB ML J555 YBC J563 UM HO/M080F350 5853N 6045N 6236N KEF
Flight Level:F350
No Slew and time accel
No pause
Crash detect
Detect pilot in Cockpit between each 30 and 45 minutes
12:08 Zero fuel Weight: 268545 Lbs, Fuel Weight: 67934 Lbs
12:08 VATSIM:CYUL 020500Z 02007KT 15SM FEW040 11/09 A3016 RMK SC1 SC TR SLP213
12:08 VATSIM:BIKF 020600Z 10007KT 999 FEW028 SCT230 03/00 Q0988
12:09 BOEING TRANSPORT
12:10 Parking Brakes off
12:15 Take-off
12:15 Take off Weight: 334825 Lbs
12:15 Wind: 032º @ 006 Knots Heading: 042º
12:15 POS N45º 28´ 18´´ W073º 45´ 03´´
12:15 Gear Up: 171 Knots
12:15 Flaps:3 at 171 Knots
12:16 Flaps:2 at 180 Knots
12:16 Flaps:1 at 196 Knots
12:16 Flaps:0at 211 Knots
12:30 Wind:045º@022 Knots Heading: 051º Ground Speed: 430 Knots Altitude 34491 ft
12:30 TOC
12:30 Fuel Weight: 59475 Lb
12:45 Wind:045º@014 Knots Heading: 042º Ground Speed: 438 Knots Altitude 35308 ft
13:00 Wind:311º@003 Knots Heading: 043º Ground Speed: 447 Knots Altitude 35357 ft
13:15 Wind:290º@015 Knots Heading: 027º Ground Speed: 450 Knots Altitude 35370 ft
13:30 Wind:294º@037 Knots Heading: 023º Ground Speed: 450 Knots Altitude 35295 ft
13:45 Wind:293º@055 Knots Heading: 043º Ground Speed: 471 Knots Altitude 35285 ft
14:00 Wind:297º@073 Knots Heading: 044º Ground Speed: 475 Knots Altitude 35298 ft
14:15 Wind:301º@072 Knots Heading: 046º Ground Speed: 472 Knots Altitude 35269 ft
14:30 Wind:298º@062 Knots Heading: 051º Ground Speed: 475 Knots Altitude 35259 ft
14:45 Wind:297º@082 Knots Heading: 052º Ground Speed: 486 Knots Altitude 35042 ft
15:00 Wind:298º@065 Knots Heading: 057º Ground Speed: 479 Knots Altitude 35065 ft
15:15 Wind:308º@030 Knots Heading: 061º Ground Speed: 455 Knots Altitude 36430 ft
15:30 Wind:293º@023 Knots Heading: 062º Ground Speed: 455 Knots Altitude 36456 ft
15:45 Wind:287º@021 Knots Heading: 066º Ground Speed: 462 Knots Altitude 36387 ft
16:00 Wind:335º@009 Knots Heading: 066º Ground Speed: 448 Knots Altitude 36302 ft
16:15 Wind:292º@031 Knots Heading: 068º Ground Speed: 475 Knots Altitude 36158 ft
16:30 Wind:193º@027 Knots Heading: 077º Ground Speed: 475 Knots Altitude 34760 ft
16:30 TOD
16:30 Fuel Weight: 19184 Lb
16:37 Flaps:1 at 254 Knots
16:45 Wind:056º@021 Knots Heading: 165º Ground Speed: 259 Knots Altitude 2634 ft
16:45 Flaps:2 at 231 Knots
16:45 Flaps:3 at 211 Knots
16:45 Flaps:4 at 193 Knots
16:46 Gear Down: 136 Knots
16:46 Flaps:5 at 136 Knots
16:46 Flaps:6 at 146 Knots
16:51 TouchDown:Rate -286 ft/min Speed: 123 Knots
16:51 VATSIM:BIKF 021030Z 07020G30KT 9999 BKN047 BKN055 06/02 Q0979
16:51 Land
16:51 Wind:074º@021 Knots
16:51 Heading: 091º
16:51 Flight Duration: 04:36
16:51 Landing Weight: 284963 Lbs
16:51 POS N63º 59´ 06´´ W022º 38´ 07´´
16:55 Parking brakes on
16:55 Block to Block Duration: 04:45
16:55 Final Fuel: 15716 Lbls
16:55 Spent Fuel: 52217 Lbls
16:55 Flight Length: 2040 NM
16:55 TOD Land Length: 104 NM

Exportar CSV

Powered by Drupal - Modified by Danger4k